createdAt,value
2022-10-24T00:04:25.272Z,5.10
2022-10-24T00:09:24.565Z,4.50
2022-10-24T00:14:22.473Z,5.07
2022-10-24T00:19:20.567Z,6.17
2022-10-24T00:24:20.108Z,6.57
2022-10-24T00:29:19.355Z,4.87
2022-10-24T00:34:17.554Z,5.57
2022-10-24T00:39:15.517Z,5.43
2022-10-24T00:44:25.988Z,5.57
2022-10-24T00:49:29.548Z,6.23
2022-10-24T00:54:27.898Z,6.37
2022-10-24T00:59:28.822Z,5.33
2022-10-24T01:04:26.706Z,5.20
2022-10-24T01:09:41.222Z,4.60
2022-10-24T01:14:51.454Z,4.63
2022-10-24T01:20:17.012Z,4.80
2022-10-24T01:25:18.701Z,4.57
2022-10-24T01:30:19.358Z,5.03
2022-10-24T01:40:34.801Z,5.60
2022-10-24T01:45:37.610Z,5.30
2022-10-24T01:50:38.664Z,5.60
2022-10-24T01:55:38.936Z,5.10
2022-10-24T02:00:38.296Z,5.10
2022-10-24T02:05:43.419Z,5.17
2022-10-24T02:10:45.962Z,4.53
2022-10-24T02:15:50.217Z,4.00
2022-10-24T02:20:54.176Z,5.03
2022-10-24T02:25:55.658Z,4.77
2022-10-24T02:31:01.126Z,5.40
2022-10-24T02:36:00.041Z,4.83
2022-10-24T02:40:59.725Z,5.00
2022-10-24T02:45:59.997Z,4.10
2022-10-24T02:50:57.895Z,4.30
2022-10-24T02:55:56.200Z,4.70
2022-10-24T03:00:54.299Z,4.60
2022-10-24T03:05:53.571Z,4.97
2022-10-24T03:10:51.435Z,4.70
2022-10-24T03:15:49.351Z,3.93
2022-10-24T03:20:47.434Z,4.33
2022-10-24T03:25:46.855Z,4.10
2022-10-24T03:30:44.864Z,4.67
2022-10-24T03:35:42.828Z,4.67
2022-10-24T03:40:40.837Z,3.87
2022-10-24T03:45:40.367Z,3.37
2022-10-24T03:50:38.422Z,3.30
2022-10-24T03:55:36.858Z,3.63
2022-10-24T04:00:39.201Z,3.70
2022-10-24T04:10:42.825Z,3.03
2022-10-24T04:15:40.915Z,2.70
2022-10-24T04:20:40.187Z,3.20
2022-10-24T04:25:38.075Z,3.07
2022-10-24T04:30:36.067Z,3.40
2022-10-24T04:35:34.042Z,3.90
2022-10-24T04:40:33.274Z,4.20
2022-10-24T04:45:31.204Z,3.83
2022-10-24T04:50:29.117Z,4.73
2022-10-24T04:55:27.134Z,3.50
2022-10-24T05:00:26.573Z,3.40
2022-10-24T05:05:24.628Z,3.80
2022-10-24T05:10:22.712Z,3.33
2022-10-24T05:15:21.698Z,2.70
2022-10-24T05:20:21.010Z,2.90
2022-10-24T05:25:19.638Z,3.10
2022-10-24T05:30:17.793Z,2.80
2022-10-24T05:35:15.716Z,2.70
2022-10-24T05:40:15.384Z,3.37
2022-10-24T05:45:13.353Z,2.60
2022-10-24T05:50:12.140Z,2.73
2022-10-24T05:55:13.488Z,3.33
2022-10-24T06:00:18.298Z,3.00
2022-10-24T06:05:16.610Z,3.70
2022-10-24T06:10:15.033Z,4.10
2022-10-24T06:15:14.275Z,4.30
2022-10-24T06:20:13.674Z,4.73
2022-10-24T06:25:11.984Z,3.10
2022-10-24T06:30:11.879Z,3.37
2022-10-24T06:35:13.216Z,3.83
2022-10-24T06:40:12.836Z,3.63
2022-10-24T06:45:11.449Z,4.23
2022-10-24T06:50:10.086Z,4.13
2022-10-24T06:55:08.765Z,4.10
2022-10-24T07:00:09.983Z,3.70
2022-10-24T07:05:12.621Z,4.00
2022-10-24T07:10:13.723Z,3.60
2022-10-24T07:15:13.536Z,3.40
2022-10-24T07:20:13.413Z,4.00
2022-10-24T07:25:11.404Z,3.80
2022-10-24T07:30:16.163Z,3.97
2022-10-24T07:35:14.478Z,4.17
2022-10-24T07:40:13.540Z,3.30
2022-10-24T07:45:13.688Z,3.10
2022-10-24T07:50:11.623Z,3.17
2022-10-24T07:55:10.214Z,2.50
2022-10-24T08:00:10.791Z,2.80
2022-10-24T08:05:13.214Z,2.10
2022-10-24T08:10:15.016Z,2.60
2022-10-24T08:15:13.389Z,2.83
2022-10-24T08:20:13.412Z,2.77
2022-10-24T08:25:11.828Z,2.50
2022-10-24T08:30:10.559Z,3.40
2022-10-24T08:35:09.452Z,2.40
2022-10-24T08:40:13.067Z,3.23
2022-10-24T08:45:15.127Z,2.53
2022-10-24T08:50:22.326Z,2.60
2022-10-24T08:55:44.501Z,2.67
2022-10-24T09:00:44.737Z,2.90
2022-10-24T09:05:47.973Z,2.37
2022-10-24T09:10:51.885Z,3.17
2022-10-24T09:15:49.928Z,2.80
2022-10-24T09:20:49.446Z,2.27
2022-10-24T09:25:52.991Z,2.07
2022-10-24T09:30:51.791Z,2.60
2022-10-24T09:35:51.874Z,2.47
2022-10-24T09:40:54.127Z,2.47
2022-10-24T09:46:01.622Z,2.37
2022-10-24T09:51:00.831Z,2.47
2022-10-24T09:56:02.187Z,2.40
2022-10-24T10:01:03.054Z,2.47
2022-10-24T10:06:04.537Z,2.60
2022-10-24T10:11:07.298Z,2.27
2022-10-24T10:16:08.298Z,2.73
2022-10-24T10:21:11.499Z,2.43
2022-10-24T10:26:17.948Z,2.63
2022-10-24T10:31:18.115Z,2.53
2022-10-24T10:36:20.655Z,3.50
2022-10-24T10:41:44.366Z,2.40
2022-10-24T10:46:48.777Z,2.37
2022-10-24T10:51:52.328Z,2.10
2022-10-24T10:56:55.142Z,2.10
2022-10-24T11:02:00.977Z,2.50
2022-10-24T11:07:07.522Z,2.23
2022-10-24T11:12:16.372Z,2.30
2022-10-24T11:17:19.089Z,2.13
2022-10-24T11:22:21.374Z,3.20
2022-10-24T11:27:26.944Z,3.37
2022-10-24T11:32:29.452Z,2.50
2022-10-24T11:37:33.006Z,2.47
2022-10-24T11:42:38.765Z,1.90
2022-10-24T11:47:48.790Z,2.30
2022-10-24T11:52:52.445Z,2.17
2022-10-24T11:57:56.672Z,2.23
2022-10-24T12:03:23.751Z,2.43
2022-10-24T12:08:38.497Z,2.30
2022-10-24T12:14:08.646Z,2.00
2022-10-24T12:19:12.710Z,2.20
2022-10-24T12:24:22.291Z,3.00
2022-10-24T12:29:25.448Z,2.73
2022-10-24T12:34:49.334Z,2.30
2022-10-24T12:39:51.019Z,2.17
2022-10-24T12:44:52.843Z,2.20
2022-10-24T12:49:52.036Z,2.30
2022-10-24T12:54:50.169Z,2.27
2022-10-24T12:59:50.121Z,2.00
2022-10-24T13:05:04.107Z,2.40
2022-10-24T13:10:30.289Z,2.60
2022-10-24T13:15:42.024Z,2.00
2022-10-24T13:20:43.761Z,1.83
2022-10-24T13:25:42.493Z,2.80
2022-10-24T13:30:40.420Z,2.50
2022-10-24T13:35:38.551Z,2.27
2022-10-24T13:40:38.261Z,2.77
2022-10-24T13:45:48.253Z,2.87
2022-10-24T13:50:51.818Z,2.00
2022-10-24T13:55:52.086Z,2.30
2022-10-24T14:00:57.789Z,2.33
2022-10-24T14:05:59.836Z,2.37
2022-10-24T14:11:02.107Z,2.40
2022-10-24T14:16:03.356Z,2.43
2022-10-24T14:21:03.129Z,2.47
2022-10-24T14:26:04.640Z,1.93
2022-10-24T14:31:04.910Z,2.30
2022-10-24T14:36:04.592Z,2.47
2022-10-24T14:41:09.587Z,2.00
2022-10-24T14:46:26.093Z,2.30
2022-10-24T14:51:28.505Z,2.17
2022-10-24T14:56:30.707Z,2.50
2022-10-24T15:01:29.284Z,3.00
2022-10-24T15:06:29.131Z,2.43
2022-10-24T15:11:30.895Z,2.70
2022-10-24T15:16:32.587Z,2.40
2022-10-24T15:21:35.488Z,2.37
2022-10-24T15:26:39.269Z,2.73
2022-10-24T15:31:39.409Z,2.50
2022-10-24T15:36:41.709Z,2.93
2022-10-24T15:41:41.142Z,3.07
2022-10-24T15:46:39.270Z,2.87
2022-10-24T15:51:38.984Z,3.23
2022-10-24T15:56:36.894Z,2.23
2022-10-24T16:01:40.539Z,3.23
2022-10-24T16:06:38.985Z,2.70
2022-10-24T16:11:37.875Z,2.40
2022-10-24T16:16:37.140Z,3.20
2022-10-24T16:21:35.039Z,2.60
2022-10-24T16:26:33.180Z,2.80
2022-10-24T16:31:31.242Z,2.40
2022-10-24T16:36:30.778Z,2.70
2022-10-24T16:41:28.750Z,2.20
2022-10-24T16:46:28.600Z,2.93
2022-10-24T16:51:31.833Z,2.00
2022-10-24T16:56:31.605Z,2.27
2022-10-24T17:01:29.715Z,2.40
2022-10-24T17:06:27.826Z,1.70
2022-10-24T17:11:44.362Z,1.60
2022-10-24T17:16:44.895Z,1.90
2022-10-24T17:21:43.458Z,2.07
2022-10-24T17:26:42.055Z,2.03
2022-10-24T17:31:40.107Z,1.90
2022-10-24T17:36:40.791Z,1.40
2022-10-24T17:41:40.728Z,2.10
2022-10-24T17:46:39.015Z,1.40
2022-10-24T17:51:39.802Z,2.30
2022-10-24T17:56:39.165Z,1.60
2022-10-24T18:01:37.329Z,1.67
2022-10-24T18:06:38.157Z,1.53
2022-10-24T18:11:40.144Z,1.63
2022-10-24T18:16:38.947Z,1.97
2022-10-24T18:21:36.905Z,1.50
2022-10-24T18:26:34.795Z,2.37
2022-10-24T18:31:34.947Z,1.47
2022-10-24T18:36:32.967Z,2.10
2022-10-24T18:41:43.315Z,1.90
2022-10-24T18:46:43.177Z,1.70
2022-10-24T18:51:46.380Z,2.40
2022-10-24T18:56:44.467Z,1.77
2022-10-24T19:01:52.720Z,1.50
2022-10-24T19:06:53.955Z,1.90
2022-10-24T19:11:52.586Z,1.73
2022-10-24T19:16:53.290Z,1.60
2022-10-24T19:21:51.243Z,1.77
2022-10-24T19:26:49.848Z,1.57
2022-10-24T19:31:47.834Z,1.70
2022-10-24T19:36:47.085Z,2.30
2022-10-24T19:41:45.014Z,1.93
2022-10-24T19:46:42.918Z,2.10
2022-10-24T19:51:40.778Z,1.93
2022-10-24T19:56:40.036Z,2.00
2022-10-24T20:01:38.013Z,2.67
2022-10-24T20:06:36.104Z,1.90
2022-10-24T20:11:34.011Z,2.10
2022-10-24T20:16:33.508Z,2.10
2022-10-24T20:21:31.408Z,2.30
2022-10-24T20:26:29.342Z,2.07
2022-10-24T20:31:29.755Z,2.10
2022-10-24T20:36:30.617Z,2.27
2022-10-24T20:41:28.705Z,2.30
2022-10-24T20:46:26.623Z,2.57
2022-10-24T20:51:24.563Z,2.50
2022-10-24T20:56:26.527Z,1.83
2022-10-24T21:01:27.356Z,1.93
2022-10-24T21:06:27.572Z,2.20
2022-10-24T21:11:28.356Z,2.63
2022-10-24T21:16:27.323Z,2.07
2022-10-24T21:21:25.672Z,2.03
2022-10-24T21:26:24.588Z,2.30
2022-10-24T21:31:25.486Z,2.20
2022-10-24T21:36:24.835Z,2.50
2022-10-24T21:41:23.840Z,2.20
2022-10-24T21:46:25.284Z,2.73
2022-10-24T21:51:25.998Z,2.30
2022-10-24T21:56:25.540Z,2.50
2022-10-24T22:01:26.751Z,2.70
2022-10-24T22:06:25.620Z,2.90
2022-10-24T22:11:24.832Z,2.43
2022-10-24T22:16:25.621Z,2.67
2022-10-24T22:21:27.206Z,2.37
2022-10-24T22:26:25.146Z,2.27
2022-10-24T22:31:26.430Z,2.53
2022-10-24T22:36:39.390Z,2.67
2022-10-24T22:41:37.779Z,2.30
2022-10-24T22:46:51.887Z,2.40
2022-10-24T22:51:50.284Z,2.70
2022-10-24T22:56:48.998Z,2.20
2022-10-24T23:02:00.561Z,2.53
2022-10-24T23:07:05.216Z,2.60
2022-10-24T23:12:03.539Z,2.40
2022-10-24T23:17:03.156Z,2.47
2022-10-24T23:22:06.881Z,3.00
2022-10-24T23:27:29.264Z,2.77
2022-10-24T23:32:30.683Z,2.50
2022-10-24T23:37:32.974Z,2.70
2022-10-24T23:42:31.534Z,2.87
2022-10-24T23:47:55.240Z,3.20
2022-10-24T23:53:07.317Z,3.13
2022-10-24T23:58:05.213Z,2.80
